Time;durP1;ratioP1;P1;durP2;ratioP2;P2;SDS_P1;SDS_P2;PMS_P1;PMS_P2;Temp;Humidity;BMP_temperature;BMP_pressure;BME280_temperature;BME280_humidity;BME280_pressure;Samples;Min_cycle;Max_cycle;Signal;HPM_P1;HPM_P2
2023/04/01 00:01:13;;;;;;;0.30;0.20;;;7.60;99.90;;;;;;5013517;28;20444;-76
2023/04/01 00:03:40;;;;;;;0.40;0.30;;;7.60;99.90;;;;;;5013428;28;20464;-76
2023/04/01 00:06:09;;;;;;;0.30;0.20;;;7.70;99.90;;;;;;5013471;28;20627;-76
2023/04/01 00:08:36;;;;;;;0.30;0.30;;;7.60;99.90;;;;;;5013100;28;20495;-76
2023/04/01 00:11:03;;;;;;;0.30;0.30;;;7.60;99.90;;;;;;5013361;28;20459;-76
2023/04/01 00:13:30;;;;;;;0.30;0.30;;;7.60;99.90;;;;;;5013419;28;20476;-75
2023/04/01 00:15:57;;;;;;;0.30;0.30;;;7.60;99.90;;;;;;5016172;28;20475;-76
2023/04/01 00:18:25;;;;;;;0.33;0.30;;;7.60;99.90;;;;;;5016864;28;20448;-76
2023/04/01 00:20:52;;;;;;;0.30;0.20;;;7.60;99.90;;;;;;5016836;28;20813;-76
2023/04/01 00:23:21;;;;;;;0.37;0.33;;;7.60;99.90;;;;;;5016762;28;20455;-76
2023/04/01 00:25:49;;;;;;;0.30;0.20;;;7.60;99.90;;;;;;5016617;28;20456;-75
2023/04/01 00:28:16;;;;;;;0.30;0.30;;;7.70;99.90;;;;;;5016645;28;20501;-75
2023/04/01 00:30:43;;;;;;;0.30;0.20;;;7.70;99.90;;;;;;5016571;28;20476;-76
2023/04/01 00:33:10;;;;;;;0.30;0.27;;;7.60;99.90;;;;;;5016581;28;20805;-76
2023/04/01 00:35:37;;;;;;;0.30;0.20;;;7.60;99.90;;;;;;5016235;28;20821;-76
2023/04/01 00:38:06;;;;;;;0.30;0.20;;;7.60;99.90;;;;;;5016349;28;20813;-76
2023/04/01 00:40:36;;;;;;;0.30;0.30;;;7.70;99.90;;;;;;5016388;28;20460;-76
2023/04/01 00:43:03;;;;;;;0.30;0.20;;;7.70;99.90;;;;;;5016084;28;20953;-76
2023/04/01 00:45:35;;;;;;;1.90;0.30;;;7.80;99.90;;;;;;5016340;28;20451;-75
2023/04/01 00:48:06;;;;;;;0.30;0.20;;;7.80;99.90;;;;;;5016070;28;20429;-76
2023/04/01 00:50:35;;;;;;;0.33;0.27;;;7.70;99.90;;;;;;5016064;28;20452;-75
2023/04/01 00:53:03;;;;;;;0.40;0.30;;;7.70;99.90;;;;;;5015926;28;20480;-75
2023/04/01 00:55:33;;;;;;;0.30;0.30;;;7.70;99.90;;;;;;5016073;28;20496;-75
2023/04/01 00:58:06;;;;;;;0.30;0.30;;;7.70;99.90;;;;;;5016106;28;20456;-75
2023/04/01 01:00:33;;;;;;;0.50;0.40;;;7.70;99.90;;;;;;5016073;28;20464;-75
2023/04/01 01:03:02;;;;;;;0.30;0.30;;;7.70;99.90;;;;;;5016018;28;20475;-75
2023/04/01 01:05:39;;;;;;;0.30;0.30;;;7.60;99.90;;;;;;5015945;28;20443;-75
2023/04/01 01:08:17;;;;;;;0.30;0.30;;;7.60;99.90;;;;;;5015978;28;20441;-75
2023/04/01 01:10:48;;;;;;;0.30;0.30;;;7.70;99.90;;;;;;5015549;28;20472;-76
2023/04/01 01:13:23;;;;;;;0.30;0.20;;;7.70;99.90;;;;;;5015939;28;20444;-76
2023/04/01 01:15:55;;;;;;;0.30;0.30;;;7.60;99.90;;;;;;5015381;28;20478;-75
2023/04/01 01:18:33;;;;;;;0.30;0.30;;;7.60;99.90;;;;;;5015760;28;20486;-75
2023/04/01 01:21:31;;;;;;;0.30;0.30;;;7.60;99.90;;;;;;5015757;28;20424;-75
2023/04/01 01:24:18;;;;;;;0.73;0.50;;;7.60;99.90;;;;;;5007486;28;20444;-76
2023/04/01 01:27:10;;;;;;;9.17;0.57;;;7.60;99.90;;;;;;5014384;28;20440;-75
2023/04/01 01:30:01;;;;;;;0.30;0.30;;;7.60;99.90;;;;;;5008762;28;20475;-76
2023/04/01 01:32:55;;;;;;;1.17;0.90;;;7.60;99.90;;;;;;5015219;28;20444;-76
2023/04/01 01:35:28;;;;;;;0.40;0.30;;;7.60;99.90;;;;;;5015837;28;20475;-75
2023/04/01 01:38:00;;;;;;;0.30;0.30;;;7.70;99.90;;;;;;5015107;28;20904;-76
2023/04/01 01:40:29;;;;;;;0.30;0.20;;;7.70;99.90;;;;;;5015312;28;20519;-76
2023/04/01 01:43:00;;;;;;;9.13;0.67;;;7.70;99.90;;;;;;5015060;28;20436;-75
2023/04/01 01:45:29;;;;;;;0.33;0.30;;;7.60;99.90;;;;;;5015929;28;20773;-75
2023/04/01 01:47:58;;;;;;;0.30;0.30;;;7.60;99.90;;;;;;5015120;28;20524;-76
2023/04/01 01:50:27;;;;;;;0.50;0.50;;;7.60;99.90;;;;;;5015288;28;20479;-75
2023/04/01 01:53:02;;;;;;;0.30;0.30;;;7.60;99.90;;;;;;5015837;28;20459;-75
2023/04/01 01:55:31;;;;;;;0.30;0.20;;;7.60;99.90;;;;;;5015016;28;20472;-75
2023/04/01 01:58:01;;;;;;;0.30;0.30;;;7.60;99.90;;;;;;5014890;28;20440;-76
2023/04/01 02:00:29;;;;;;;0.97;0.50;;;7.60;99.90;;;;;;5014845;28;20471;-75
2023/04/01 02:02:57;;;;;;;0.30;0.30;;;7.50;99.90;;;;;;5014889;28;20455;-75
2023/04/01 02:05:29;;;;;;;0.30;0.20;;;7.60;99.90;;;;;;5014832;28;20444;-76
2023/04/01 02:08:00;;;;;;;0.30;0.20;;;7.60;99.90;;;;;;5014818;28;20519;-76
2023/04/01 02:10:30;;;;;;;0.30;0.30;;;7.60;99.90;;;;;;5014825;28;20535;-76
2023/04/01 02:13:02;;;;;;;0.30;0.30;;;7.50;99.90;;;;;;5014849;28;20416;-76
2023/04/01 02:15:32;;;;;;;0.30;0.30;;;7.50;99.90;;;;;;5014387;28;20496;-75
2023/04/01 02:18:00;;;;;;;0.30;0.20;;;7.40;99.90;;;;;;5014405;28;21031;-75
2023/04/01 02:20:29;;;;;;;0.33;0.27;;;7.40;99.90;;;;;;5014509;28;20512;-75
2023/04/01 02:22:59;;;;;;;0.67;0.27;;;7.40;99.90;;;;;;5014530;28;20459;-75
2023/04/01 02:25:29;;;;;;;0.30;0.20;;;7.40;99.90;;;;;;5014748;28;20440;-76
2023/04/01 02:27:59;;;;;;;0.30;0.20;;;7.50;99.90;;;;;;5014773;28;20429;-75
2023/04/01 02:30:27;;;;;;;1.10;0.50;;;7.40;99.90;;;;;;5014330;28;20464;-76
2023/04/01 02:32:55;;;;;;;0.30;0.20;;;7.40;99.90;;;;;;5014088;28;20964;-76
2023/04/01 02:35:23;;;;;;;0.30;0.23;;;7.30;99.90;;;;;;5014185;28;21057;-75
2023/04/01 02:37:53;;;;;;;0.30;0.20;;;7.30;99.90;;;;;;5014128;28;20452;-75
2023/04/01 02:40:20;;;;;;;0.30;0.20;;;7.30;99.90;;;;;;5014215;28;20456;-75
2023/04/01 02:42:47;;;;;;;0.30;0.20;;;7.20;99.90;;;;;;5014886;28;20483;-75
2023/04/01 02:45:14;;;;;;;0.30;0.30;;;7.10;99.90;;;;;;5013884;28;20444;-75
2023/04/01 02:47:41;;;;;;;0.30;0.30;;;7.10;99.90;;;;;;5014868;28;20904;-76
2023/04/01 02:50:10;;;;;;;0.30;0.20;;;7.00;99.90;;;;;;5014068;28;20471;-75
2023/04/01 02:52:36;;;;;;;0.30;0.20;;;7.00;99.90;;;;;;5013761;28;20939;-76
2023/04/01 02:55:07;;;;;;;0.30;0.20;;;7.00;99.90;;;;;;5013943;28;20563;-75
2023/04/01 02:57:34;;;;;;;0.30;0.30;;;7.00;99.90;;;;;;5014015;28;20455;-76
2023/04/01 03:00:00;;;;;;;0.30;0.20;;;7.00;99.90;;;;;;5013888;28;20530;-76
2023/04/01 03:02:27;;;;;;;0.30;0.30;;;7.00;99.90;;;;;;5013575;28;20452;-75
2023/04/01 03:04:54;;;;;;;0.30;0.20;;;7.00;99.90;;;;;;5013761;28;20464;-76
2023/04/01 03:07:21;;;;;;;0.30;0.20;;;7.00;99.90;;;;;;5013829;28;20456;-76
2023/04/01 03:09:47;;;;;;;0.30;0.30;;;7.00;99.90;;;;;;5013744;28;20478;-75
2023/04/01 03:12:15;;;;;;;0.30;0.20;;;7.00;99.90;;;;;;5013788;28;20464;-75
2023/04/01 03:14:42;;;;;;;0.30;0.20;;;7.10;99.90;;;;;;5013504;28;20496;-76
2023/04/01 03:17:09;;;;;;;0.30;0.20;;;7.10;99.90;;;;;;5013559;28;20966;-76
2023/04/01 03:19:36;;;;;;;0.30;0.23;;;7.00;99.90;;;;;;5013635;28;20467;-75
2023/04/01 03:22:02;;;;;;;0.30;0.30;;;7.00;99.90;;;;;;5013625;28;20471;-76
2023/04/01 03:24:29;;;;;;;0.30;0.20;;;7.00;99.90;;;;;;5014218;28;20452;-76
2023/04/01 03:26:56;;;;;;;0.30;0.30;;;7.10;99.90;;;;;;5013572;28;20444;-76
2023/04/01 03:29:24;;;;;;;0.30;0.20;;;7.10;99.90;;;;;;5013181;28;21006;-75
2023/04/01 03:31:51;;;;;;;0.30;0.20;;;7.20;99.90;;;;;;5013308;28;20448;-75
2023/04/01 03:34:18;;;;;;;0.30;0.20;;;7.20;99.90;;;;;;5013458;28;20484;-75
2023/04/01 03:36:44;;;;;;;0.30;0.20;;;7.10;99.90;;;;;;5013602;28;20456;-75
2023/04/01 03:39:12;;;;;;;0.30;0.20;;;7.10;99.90;;;;;;5013392;28;20834;-76
2023/04/01 03:41:39;;;;;;;0.30;0.20;;;7.10;99.90;;;;;;5013462;28;21038;-76
2023/04/01 03:44:06;;;;;;;0.30;0.20;;;7.10;99.90;;;;;;5013700;28;20770;-75
2023/04/01 03:46:34;;;;;;;0.30;0.30;;;7.20;99.90;;;;;;5013424;28;20463;-75
2023/04/01 03:49:01;;;;;;;0.30;0.30;;;7.10;99.90;;;;;;5013851;28;20473;-76
2023/04/01 03:51:28;;;;;;;0.30;0.20;;;7.10;99.90;;;;;;5017061;28;20979;-76
2023/04/01 03:53:55;;;;;;;0.30;0.30;;;7.20;99.90;;;;;;5016991;28;20552;-76
2023/04/01 03:56:21;;;;;;;0.30;0.20;;;7.20;99.90;;;;;;5017218;28;20488;-75
2023/04/01 03:58:48;;;;;;;0.30;0.20;;;7.20;99.90;;;;;;5017177;28;20459;-76
2023/04/01 04:01:17;;;;;;;0.30;0.30;;;7.20;99.90;;;;;;5016860;28;20452;-76
2023/04/01 04:03:45;;;;;;;0.30;0.27;;;7.30;99.90;;;;;;5017376;28;20452;-75
2023/04/01 04:06:13;;;;;;;0.30;0.20;;;7.20;99.90;;;;;;5017126;28;20571;-76
2023/04/01 04:08:40;;;;;;;0.50;0.30;;;7.20;99.90;;;;;;5017141;28;20456;-76
2023/04/01 04:11:07;;;;;;;0.30;0.20;;;7.00;99.90;;;;;;5016795;28;20447;-76
2023/04/01 04:13:35;;;;;;;0.30;0.30;;;6.90;99.90;;;;;;5016846;28;21034;-76
2023/04/01 04:16:02;;;;;;;0.30;0.20;;;6.90;99.90;;;;;;5016477;28;20483;-76
2023/04/01 04:18:29;;;;;;;0.40;0.30;;;6.80;99.90;;;;;;5016892;28;20455;-76
2023/04/01 04:20:57;;;;;;;0.30;0.20;;;6.80;99.90;;;;;;5017129;28;20468;-75
2023/04/01 04:23:24;;;;;;;0.33;0.27;;;6.80;99.90;;;;;;5016906;28;20455;-76
2023/04/01 04:25:56;;;;;;;0.50;0.30;;;6.80;99.90;;;;;;5016872;28;20450;-76
2023/04/01 04:28:23;;;;;;;0.40;0.30;;;6.80;99.90;;;;;;5016724;28;20456;-76
2023/04/01 04:30:49;;;;;;;0.30;0.27;;;6.70;99.90;;;;;;5016626;28;20475;-76
2023/04/01 04:33:16;;;;;;;0.30;0.20;;;6.70;99.90;;;;;;5016617;28;20455;-76
2023/04/01 04:35:43;;;;;;;0.30;0.20;;;6.70;99.90;;;;;;5016499;28;20488;-76
2023/04/01 04:38:11;;;;;;;0.30;0.30;;;6.70;99.90;;;;;;5016311;28;20440;-76
2023/04/01 04:40:39;;;;;;;0.30;0.20;;;6.70;99.90;;;;;;5016257;28;21014;-76
2023/04/01 04:43:06;;;;;;;0.30;0.20;;;6.70;99.90;;;;;;5016664;28;20455;-76
2023/04/01 04:45:32;;;;;;;0.30;0.20;;;6.80;99.90;;;;;;5016369;28;20447;-76
2023/04/01 04:47:59;;;;;;;0.30;0.20;;;6.80;99.90;;;;;;5016162;28;20448;-76
2023/04/01 04:50:26;;;;;;;0.30;0.20;;;6.90;99.90;;;;;;5016480;28;20460;-76
2023/04/01 04:52:53;;;;;;;0.30;0.20;;;7.00;99.90;;;;;;5016106;28;20460;-76
2023/04/01 04:55:22;;;;;;;0.30;0.20;;;7.00;99.90;;;;;;5016134;28;20488;-76
2023/04/01 04:57:48;;;;;;;0.40;0.40;;;7.00;99.90;;;;;;5016141;28;20449;-76
2023/04/01 05:00:15;;;;;;;0.40;0.30;;;7.10;99.90;;;;;;5015725;28;20484;-76
2023/04/01 05:02:42;;;;;;;0.30;0.20;;;7.00;99.90;;;;;;5015723;28;20931;-76
2023/04/01 05:05:10;;;;;;;0.40;0.30;;;6.90;99.90;;;;;;5016016;28;20444;-76
2023/04/01 05:07:37;;;;;;;0.30;0.23;;;6.90;99.90;;;;;;5015660;28;20962;-76
2023/04/01 05:10:04;;;;;;;0.30;0.20;;;6.90;99.90;;;;;;5015499;28;20468;-76
2023/04/01 05:12:35;;;;;;;0.30;0.30;;;7.00;99.90;;;;;;5015876;28;20452;-76
2023/04/01 05:15:04;;;;;;;0.63;0.30;;;7.00;99.90;;;;;;5015473;28;20506;-76
2023/04/01 05:17:31;;;;;;;0.30;0.30;;;7.00;99.90;;;;;;5015769;28;20462;-76
2023/04/01 05:19:58;;;;;;;0.30;0.20;;;7.10;99.90;;;;;;5015653;28;20471;-76
2023/04/01 05:22:25;;;;;;;1.13;0.57;;;7.10;99.90;;;;;;5015429;28;20460;-76
2023/04/01 05:24:52;;;;;;;0.30;0.30;;;7.20;99.90;;;;;;5016206;28;20456;-76
2023/04/01 05:27:18;;;;;;;0.30;0.30;;;7.20;99.90;;;;;;5015252;28;20459;-76
2023/04/01 05:29:46;;;;;;;0.30;0.30;;;7.20;99.90;;;;;;5015199;28;20453;-76
2023/04/01 05:32:13;;;;;;;0.30;0.30;;;7.30;99.90;;;;;;5015510;28;20444;-76
2023/04/01 05:34:40;;;;;;;0.30;0.20;;;7.30;99.90;;;;;;5015224;28;20441;-76
2023/04/01 05:37:07;;;;;;;0.30;0.20;;;7.30;99.90;;;;;;5015107;28;20843;-76
2023/04/01 05:39:37;;;;;;;0.30;0.20;;;7.40;99.90;;;;;;5015302;28;20476;-76
2023/04/01 05:42:04;;;;;;;0.30;0.30;;;7.40;99.90;;;;;;5015035;28;20453;-76
2023/04/01 05:44:30;;;;;;;0.30;0.20;;;7.40;99.90;;;;;;5015310;28;20436;-76
2023/04/01 05:46:59;;;;;;;0.30;0.20;;;7.40;99.90;;;;;;5015251;28;20524;-76
2023/04/01 05:49:25;;;;;;;0.30;0.30;;;7.50;99.90;;;;;;5015115;28;20479;-76
2023/04/01 05:51:52;;;;;;;0.30;0.30;;;7.60;99.90;;;;;;5015208;28;20457;-76
2023/04/01 05:54:19;;;;;;;0.60;0.60;;;7.60;99.90;;;;;;5015056;28;20455;-76
2023/04/01 05:56:46;;;;;;;0.30;0.20;;;7.80;99.90;;;;;;5014674;28;21095;-76
2023/04/01 05:59:13;;;;;;;0.30;0.20;;;7.90;99.90;;;;;;5014611;28;20872;-76
2023/04/01 06:01:41;;;;;;;0.30;0.20;;;8.00;99.90;;;;;;5014989;28;20444;-76
2023/04/01 06:04:14;;;;;;;0.30;0.20;;;7.90;99.90;;;;;;5014880;28;20455;-76
2023/04/01 06:06:41;;;;;;;0.30;0.30;;;8.20;99.90;;;;;;5014852;28;20440;-76
2023/04/01 06:09:14;;;;;;;0.30;0.20;;;8.20;99.90;;;;;;5014469;28;20867;-76
2023/04/01 06:11:52;;;;;;;0.30;0.20;;;8.30;99.90;;;;;;5013853;28;20433;-76
2023/04/01 06:14:31;;;;;;;0.30;0.30;;;8.30;99.90;;;;;;5014457;28;20479;-76
2023/04/01 06:17:19;;;;;;;0.30;0.30;;;8.40;99.90;;;;;;5014650;28;20476;-76
2023/04/01 06:19:55;;;;;;;0.30;0.30;;;8.40;99.90;;;;;;5014365;28;20903;-76
2023/04/01 06:22:43;;;;;;;0.30;0.27;;;8.30;99.90;;;;;;5014871;28;20523;-76
2023/04/01 06:25:31;;;;;;;0.30;0.27;;;8.50;99.90;;;;;;5014649;28;20453;-76
2023/04/01 06:28:15;;;;;;;0.30;0.27;;;8.50;99.90;;;;;;5014707;28;20443;-76
2023/04/01 06:30:45;;;;;;;0.43;0.23;;;8.60;99.90;;;;;;5014092;28;20464;-77
2023/04/01 06:33:35;;;;;;;0.30;0.30;;;8.60;99.90;;;;;;5014247;28;20514;-76
2023/04/01 06:36:30;;;;;;;0.30;0.20;;;8.50;99.90;;;;;;5014008;28;20475;-77
2023/04/01 06:39:19;;;;;;;0.30;0.20;;;8.40;99.90;;;;;;5007603;28;20471;-77
2023/04/01 06:42:08;;;;;;;0.30;0.20;;;8.30;99.90;;;;;;5014534;28;20437;-76
2023/04/01 06:44:42;;;;;;;0.30;0.23;;;8.30;99.90;;;;;;5013918;28;20437;-76
2023/04/01 06:47:25;;;;;;;0.30;0.20;;;8.20;99.90;;;;;;5013926;28;20764;-76
2023/04/01 06:50:01;;;;;;;0.30;0.20;;;8.20;99.90;;;;;;5014077;28;20479;-77
2023/04/01 06:52:42;;;;;;;0.30;0.30;;;8.20;99.90;;;;;;5014039;28;20428;-77
2023/04/01 06:55:25;;;;;;;0.30;0.30;;;8.20;99.90;;;;;;5013743;28;20937;-76
2023/04/01 06:57:56;;;;;;;0.30;0.30;;;8.30;99.90;;;;;;5013763;28;20449;-76
2023/04/01 07:00:29;;;;;;;0.30;0.20;;;8.40;99.90;;;;;;5013902;28;20499;-76
2023/04/01 07:03:06;;;;;;;0.30;0.30;;;8.50;99.90;;;;;;5013652;28;20446;-76
2023/04/01 07:05:35;;;;;;;0.40;0.30;;;8.50;99.90;;;;;;5013901;28;20470;-76
2023/04/01 07:08:06;;;;;;;0.30;0.30;;;8.50;99.90;;;;;;5014035;28;20448;-77
2023/04/01 07:10:40;;;;;;;0.50;0.50;;;8.50;99.90;;;;;;5013688;28;20472;-77
2023/04/01 07:13:14;;;;;;;0.30;0.20;;;8.50;99.90;;;;;;5013742;28;20817;-76
2023/04/01 07:15:44;;;;;;;0.40;0.30;;;8.60;99.90;;;;;;5013471;28;20499;-76
2023/04/01 07:18:17;;;;;;;0.40;0.30;;;8.60;99.90;;;;;;5013602;28;20436;-76
2023/04/01 07:20:45;;;;;;;0.30;0.30;;;8.70;99.90;;;;;;5013557;28;20530;-76
2023/04/01 07:23:22;;;;;;;0.30;0.30;;;8.60;99.90;;;;;;5013318;28;20912;-77
2023/04/01 07:25:53;;;;;;;0.80;0.30;;;8.60;99.90;;;;;;5013620;28;20456;-76
2023/04/01 07:28:21;;;;;;;0.30;0.30;;;8.60;99.90;;;;;;5013715;28;20441;-77
2023/04/01 07:31:02;;;;;;;0.30;0.20;;;8.50;99.90;;;;;;5013332;28;20495;-76
2023/04/01 07:33:37;;;;;;;0.30;0.30;;;8.60;99.90;;;;;;5013705;28;20904;-77
2023/04/01 07:36:10;;;;;;;0.40;0.30;;;8.50;99.90;;;;;;5013161;28;20869;-76
2023/04/01 07:38:49;;;;;;;0.80;0.80;;;8.50;99.90;;;;;;5013433;28;20436;-76
2023/04/01 07:41:25;;;;;;;0.30;0.30;;;8.70;99.90;;;;;;5013444;28;20436;-76
2023/04/01 07:44:04;;;;;;;0.30;0.30;;;8.60;99.90;;;;;;5013483;28;20522;-76
2023/04/01 07:46:46;;;;;;;1.33;1.23;;;8.80;99.90;;;;;;5013416;28;20463;-76
2023/04/01 07:49:19;;;;;;;0.97;0.30;;;8.90;99.90;;;;;;5013336;28;20465;-77
2023/04/01 07:51:51;;;;;;;0.30;0.30;;;9.10;99.90;;;;;;5013333;28;20515;-77
2023/04/01 07:54:26;;;;;;;0.30;0.20;;;9.20;99.90;;;;;;5013043;28;20436;-77
2023/04/01 07:57:02;;;;;;;0.30;0.20;;;9.20;99.90;;;;;;5012968;28;20471;-77
2023/04/01 07:59:36;;;;;;;0.30;0.20;;;9.30;99.90;;;;;;5013202;28;20456;-76
2023/04/01 08:02:15;;;;;;;0.30;0.27;;;9.20;99.90;;;;;;5013305;28;20429;-77
2023/04/01 08:04:53;;;;;;;0.30;0.30;;;9.10;99.90;;;;;;5013322;28;20436;-76
2023/04/01 08:07:24;;;;;;;0.30;0.30;;;9.10;99.90;;;;;;5013288;28;20428;-76
2023/04/01 08:10:00;;;;;;;0.30;0.20;;;9.20;99.90;;;;;;5012884;28;20468;-76
2023/04/01 08:12:38;;;;;;;0.30;0.20;;;9.20;99.90;;;;;;5013781;28;20432;-76
2023/04/01 08:15:13;;;;;;;0.30;0.30;;;9.10;99.90;;;;;;5012943;28;20490;-76
2023/04/01 08:17:51;;;;;;;0.40;0.30;;;9.00;99.90;;;;;;5012784;28;20474;-76
2023/04/01 08:20:30;;;;;;;0.30;0.30;;;9.00;99.90;;;;;;5012782;28;20487;-76
2023/04/01 08:23:01;;;;;;;0.30;0.20;;;9.10;99.90;;;;;;5013078;28;20447;-76
2023/04/01 08:25:32;;;;;;;0.40;0.30;;;9.10;99.90;;;;;;5013079;28;20901;-76
2023/04/01 08:28:04;;;;;;;0.30;0.30;;;9.10;99.90;;;;;;5013073;28;20433;-76
2023/04/01 08:30:41;;;;;;;0.30;0.30;;;9.10;99.90;;;;;;5012978;28;20503;-76
2023/04/01 08:33:14;;;;;;;0.30;0.30;;;8.90;99.90;;;;;;5013053;28;20440;-77
2023/04/01 08:35:47;;;;;;;2.40;0.33;;;8.80;99.90;;;;;;5014198;28;20417;-77
2023/04/01 08:38:18;;;;;;;0.40;0.30;;;8.80;99.90;;;;;;5016544;28;20435;-77
2023/04/01 08:40:58;;;;;;;0.50;0.50;;;8.70;99.90;;;;;;5016188;28;20472;-77
2023/04/01 08:43:59;;;;;;;0.30;0.20;;;8.70;99.90;;;;;;5016516;28;20780;-77
2023/04/01 08:46:44;;;;;;;0.30;0.20;;;8.70;99.90;;;;;;4996191;28;20955;-77
2023/04/01 08:49:23;;;;;;;0.30;0.30;;;8.60;99.90;;;;;;5016513;28;20472;-77
2023/04/01 08:52:14;;;;;;;0.37;0.30;;;8.50;99.90;;;;;;5016294;28;20432;-77
2023/04/01 08:54:59;;;;;;;0.30;0.30;;;8.40;99.90;;;;;;5015950;28;20433;-77
2023/04/01 08:57:40;;;;;;;0.30;0.20;;;8.40;99.90;;;;;;5015857;28;20471;-77
2023/04/01 09:00:20;;;;;;;0.30;0.20;;;8.50;99.90;;;;;;5015952;28;20483;-83
2023/04/01 09:03:29;;;;;;;0.30;0.23;;;8.70;99.90;;;;;;5016097;28;20447;-83
2023/04/01 09:06:21;;;;;;;0.53;0.53;;;8.90;99.90;;;;;;5016056;28;20440;-83
2023/04/01 09:09:00;;;;;;;0.30;0.20;;;9.40;99.90;;;;;;5015926;28;20424;-84
2023/04/01 09:11:46;;;;;;;0.90;0.37;;;9.80;99.90;;;;;;5015965;28;20852;-84
2023/04/01 09:14:58;;;;;;;0.30;0.20;;;10.20;99.90;;;;;;5015675;28;20571;-83
2023/04/01 09:17:56;;;;;;;0.30;0.20;;;11.20;99.90;;;;;;4917230;29;20472;-83
2023/04/01 09:21:04;;;;;;;0.40;0.30;;;11.90;99.90;;;;;;4916987;29;20476;-83
2023/04/01 09:24:02;;;;;;;0.30;0.20;;;12.10;99.90;;;;;;4989359;28;20928;-83
2023/04/01 09:26:42;;;;;;;0.30;0.30;;;12.10;99.90;;;;;;5015569;28;20424;-83
2023/04/01 09:29:25;;;;;;;2.20;0.43;;;12.30;99.90;;;;;;5015479;28;20468;-83
2023/04/01 09:32:10;;;;;;;0.30;0.30;;;12.20;99.90;;;;;;5016032;28;20912;-83
2023/04/01 09:34:54;;;;;;;0.30;0.30;;;12.10;99.90;;;;;;5015428;28;20432;-83
2023/04/01 09:37:27;;;;;;;0.30;0.30;;;11.60;99.90;;;;;;5015338;28;20524;-83
2023/04/01 09:40:14;;;;;;;0.30;0.30;;;11.10;99.90;;;;;;5015569;28;20468;-83
2023/04/01 09:42:48;;;;;;;1.20;0.80;;;10.70;99.90;;;;;;5015299;28;20482;-83
2023/04/01 09:45:28;;;;;;;0.67;0.40;;;10.70;99.90;;;;;;5015294;28;20512;-83
2023/04/01 09:48:13;;;;;;;0.30;0.27;;;10.50;99.90;;;;;;5014176;28;20417;-83
2023/04/01 09:50:50;;;;;;;0.40;0.30;;;10.40;99.90;;;;;;5015067;28;20995;-83
2023/04/01 09:53:31;;;;;;;0.40;0.30;;;10.10;99.90;;;;;;5015114;28;20788;-82
2023/04/01 09:56:34;;;;;;;0.30;0.20;;;10.10;99.90;;;;;;5015030;28;20417;-83
2023/04/01 09:59:34;;;;;;;0.30;0.20;;;10.10;99.90;;;;;;5015184;28;20463;-82
2023/04/01 10:02:25;;;;;;;0.30;0.20;;;10.10;99.90;;;;;;5014663;28;20504;-83
2023/04/01 10:05:34;;;;;;;0.70;0.40;;;10.00;99.90;;;;;;5014944;28;20429;-83
2023/04/01 10:08:42;;;;;;;0.30;0.30;;;9.90;99.90;;;;;;5014787;28;20519;-83
2023/04/01 10:11:47;;;;;;;0.30;0.20;;;9.80;99.90;;;;;;5002575;28;20471;-83
2023/04/01 10:14:35;;;;;;;0.30;0.20;;;9.80;99.90;;;;;;4981455;28;20483;-82
2023/04/01 10:17:20;;;;;;;0.40;0.30;;;9.80;99.90;;;;;;5010706;28;20488;-79
2023/04/01 10:20:14;;;;;;;0.30;0.30;;;9.70;99.90;;;;;;5014582;28;20479;-79
2023/04/01 10:23:22;;;;;;;0.30;0.20;;;9.80;99.90;;;;;;5014231;28;20417;-78
2023/04/01 10:26:30;;;;;;;0.40;0.40;;;9.80;99.90;;;;;;4989815;28;20452;-78
2023/04/01 10:29:33;;;;;;;0.30;0.20;;;10.10;99.90;;;;;;4989729;28;20482;-78
2023/04/01 10:32:18;;;;;;;0.37;0.30;;;10.40;99.90;;;;;;5014201;28;20458;-78
2023/04/01 10:35:30;;;;;;;0.30;0.30;;;10.70;99.90;;;;;;5014175;28;20475;-79
2023/04/01 10:38:46;;;;;;;0.30;0.30;;;11.20;99.90;;;;;;4957189;28;20499;-78
2023/04/01 10:41:55;;;;;;;0.30;0.20;;;11.50;99.90;;;;;;4934636;29;20452;-78
2023/04/01 10:44:52;;;;;;;0.30;0.20;;;12.50;99.90;;;;;;5014233;28;20432;-78
2023/04/01 10:47:50;;;;;;;0.30;0.20;;;13.20;99.90;;;;;;5014166;28;20447;-77
2023/04/01 10:50:39;;;;;;;0.40;0.30;;;13.80;99.90;;;;;;5014162;28;20468;-77
2023/04/01 10:53:46;;;;;;;0.30;0.20;;;14.50;99.90;;;;;;5013823;28;20439;-78
2023/04/01 10:56:39;;;;;;;0.30;0.30;;;14.80;99.90;;;;;;5010968;28;20463;-78
2023/04/01 10:59:48;;;;;;;0.30;0.20;;;14.40;99.90;;;;;;5013622;28;20463;-78
2023/04/01 11:02:50;;;;;;;0.30;0.30;;;14.20;99.90;;;;;;5013938;28;20439;-78
2023/04/01 11:05:59;;;;;;;0.30;0.20;;;13.90;99.90;;;;;;5014076;28;20452;-78
2023/04/01 11:09:15;;;;;;;0.30;0.20;;;13.90;99.90;;;;;;5013882;28;20472;-78
2023/04/01 11:12:08;;;;;;;0.30;0.20;;;13.70;99.90;;;;;;5013500;28;20935;-78
2023/04/01 11:15:03;;;;;;;0.30;0.20;;;13.50;99.90;;;;;;5013479;28;20503;-79
2023/04/01 11:17:57;;;;;;;0.30;0.20;;;13.50;99.90;;;;;;5013689;28;20468;-77
2023/04/01 11:20:45;;;;;;;0.30;0.23;;;13.20;99.90;;;;;;5013669;28;20468;-77
2023/04/01 11:23:29;;;;;;;0.30;0.20;;;13.00;99.90;;;;;;5013684;28;20439;-78
2023/04/01 11:26:05;;;;;;;0.30;0.20;;;13.00;99.90;;;;;;5013667;28;20440;-78
2023/04/01 11:29:04;;;;;;;0.30;0.30;;;13.00;99.90;;;;;;5013601;28;20793;-78
2023/04/01 11:31:40;;;;;;;0.30;0.30;;;12.90;99.90;;;;;;5013624;28;20495;-79
2023/04/01 11:34:18;;;;;;;0.30;0.20;;;12.90;99.90;;;;;;5013598;28;20442;-78
2023/04/01 11:36:53;;;;;;;0.30;0.20;;;13.00;99.90;;;;;;5013530;28;20413;-78
2023/04/01 11:39:28;;;;;;;0.30;0.20;;;13.40;99.90;;;;;;5013464;28;20471;-78
2023/04/01 11:42:05;;;;;;;0.30;0.20;;;13.60;99.90;;;;;;5013533;28;20439;-78
2023/04/01 11:44:39;;;;;;;0.30;0.20;;;13.40;99.90;;;;;;5013512;28;20433;-78
2023/04/01 11:47:23;;;;;;;0.30;0.30;;;13.30;99.90;;;;;;5013479;28;20440;-78
2023/04/01 11:50:05;;;;;;;0.30;0.30;;;13.00;99.90;;;;;;5013152;28;20459;-79
2023/04/01 11:52:51;;;;;;;0.30;0.30;;;12.80;99.90;;;;;;5013501;28;20532;-78
2023/04/01 11:55:28;;;;;;;0.30;0.20;;;12.80;99.90;;;;;;5009265;28;20966;-78
2023/04/01 11:58:29;;;;;;;0.30;0.30;;;12.60;99.90;;;;;;5013391;28;20460;-78
2023/04/01 12:01:28;;;;;;;0.30;0.30;;;12.70;99.90;;;;;;4972545;28;20563;-79
2023/04/01 12:04:28;;;;;;;0.33;0.27;;;12.90;99.90;;;;;;5013349;28;20458;-79
2023/04/01 12:07:03;;;;;;;0.30;0.20;;;12.70;99.90;;;;;;5013342;28;20432;-79
2023/04/01 12:09:39;;;;;;;0.30;0.20;;;12.70;99.90;;;;;;5013109;28;20446;-78
2023/04/01 12:12:19;;;;;;;0.30;0.20;;;12.90;99.90;;;;;;5017368;28;20499;-79
2023/04/01 12:14:55;;;;;;;0.30;0.20;;;13.10;99.90;;;;;;5016706;28;20483;-79
2023/04/01 12:17:33;;;;;;;0.30;0.20;;;13.10;99.90;;;;;;5016991;28;20470;-79
2023/04/01 12:20:16;;;;;;;0.30;0.30;;;13.10;99.90;;;;;;5016614;28;20453;-79
2023/04/01 12:22:50;;;;;;;0.30;0.30;;;13.10;99.90;;;;;;5017228;28;20464;-79
2023/04/01 12:25:48;;;;;;;0.30;0.30;;;13.00;99.90;;;;;;5016845;28;20799;-78
2023/04/01 12:28:23;;;;;;;0.30;0.27;;;12.80;99.90;;;;;;5016414;28;20460;-78
2023/04/01 12:31:03;;;;;;;0.30;0.20;;;12.50;99.90;;;;;;5016528;28;20826;-78
2023/04/01 12:33:46;;;;;;;0.30;0.30;;;12.10;99.90;;;;;;5016598;28;20448;-78
2023/04/01 12:36:27;;;;;;;0.30;0.30;;;11.90;99.90;;;;;;5016598;28;20440;-78
2023/04/01 12:39:23;;;;;;;0.30;0.20;;;11.60;99.90;;;;;;5016402;28;20491;-78
2023/04/01 12:41:56;;;;;;;0.30;0.20;;;11.50;99.90;;;;;;5015990;28;20939;-78
2023/04/01 12:44:41;;;;;;;0.30;0.27;;;11.70;99.90;;;;;;5016464;28;20437;-78
2023/04/01 12:47:38;;;;;;;0.30;0.20;;;11.80;99.90;;;;;;5016420;28;20435;-77
2023/04/01 12:50:53;;;;;;;0.30;0.20;;;11.90;99.90;;;;;;4996475;28;20486;-77
2023/04/01 12:53:39;;;;;;;0.30;0.30;;;12.30;99.90;;;;;;4936627;29;20416;-77
2023/04/01 12:56:15;;;;;;;0.40;0.30;;;12.30;99.90;;;;;;4936985;29;20515;-77
2023/04/01 12:59:13;;;;;;;0.30;0.30;;;12.40;99.90;;;;;;4994883;28;20498;-77
2023/04/01 13:02:01;;;;;;;0.30;0.20;;;12.60;99.90;;;;;;5015880;28;20445;-77
2023/04/01 13:04:57;;;;;;;0.30;0.20;;;12.50;99.90;;;;;;5016199;28;20507;-77
2023/04/01 13:07:34;;;;;;;0.30;0.20;;;12.50;99.90;;;;;;5015926;28;20463;-77
2023/04/01 13:10:10;;;;;;;0.30;0.20;;;12.70;99.90;;;;;;5015946;28;20472;-77
2023/04/01 13:12:52;;;;;;;0.30;0.20;;;12.60;99.90;;;;;;5015979;28;20432;-78
2023/04/01 13:15:26;;;;;;;0.30;0.30;;;12.60;99.90;;;;;;5015619;28;20495;-78
2023/04/01 13:17:59;;;;;;;0.40;0.30;;;12.60;99.90;;;;;;5015795;28;21003;-78
2023/04/01 13:20:42;;;;;;;0.30;0.20;;;12.80;99.90;;;;;;5015844;28;20468;-77
2023/04/01 13:23:20;;;;;;;0.30;0.30;;;13.00;99.90;;;;;;5016373;28;20455;-78
2023/04/01 13:25:52;;;;;;;0.30;0.20;;;13.00;99.90;;;;;;5015778;28;20436;-78
2023/04/01 13:28:25;;;;;;;0.30;0.20;;;12.80;99.90;;;;;;5015718;28;20811;-78
2023/04/01 13:31:00;;;;;;;0.97;0.40;;;12.80;99.90;;;;;;5015286;28;20464;-78
2023/04/01 13:33:34;;;;;;;0.30;0.20;;;12.70;99.90;;;;;;5015266;28;20447;-77
2023/04/01 13:36:13;;;;;;;0.30;0.20;;;12.60;99.90;;;;;;5015791;28;20439;-77
2023/04/01 13:39:06;;;;;;;0.30;0.20;;;12.50;99.90;;;;;;5015620;28;20870;-77
2023/04/01 13:41:56;;;;;;;0.30;0.30;;;12.50;99.90;;;;;;5015497;28;20413;-77
2023/04/01 13:44:33;;;;;;;0.40;0.30;;;12.60;99.90;;;;;;5015427;28;20876;-77